sensor_id;sensor_type;location;lat;lon;timestamp;P1;durP1;ratioP1;P2;durP2;ratioP2
52574;SDS011;38468;48.114;-1.684;2023-05-07T00:01:12;10.57;;;4.32;;
52574;SDS011;38468;48.114;-1.684;2023-05-07T00:03:13;9.43;;;3.80;;
52574;SDS011;38468;48.114;-1.684;2023-05-07T00:05:13;9.80;;;4.03;;
52574;SDS011;38468;48.114;-1.684;2023-05-07T00:07:14;10.43;;;3.65;;
52574;SDS011;38468;48.114;-1.684;2023-05-07T00:09:15;10.82;;;4.35;;
52574;SDS011;38468;48.114;-1.684;2023-05-07T00:11:16;11.65;;;4.22;;
52574;SDS011;38468;48.114;-1.684;2023-05-07T00:13:17;9.93;;;3.95;;
52574;SDS011;38468;48.114;-1.684;2023-05-07T00:15:17;9.20;;;4.05;;
52574;SDS011;38468;48.114;-1.684;2023-05-07T00:17:18;11.02;;;4.53;;
52574;SDS011;38468;48.114;-1.684;2023-05-07T00:19:19;8.40;;;3.30;;
52574;SDS011;38468;48.114;-1.684;2023-05-07T00:21:20;7.72;;;3.95;;
52574;SDS011;38468;48.114;-1.684;2023-05-07T00:23:21;11.25;;;4.43;;
52574;SDS011;38468;48.114;-1.684;2023-05-07T00:25:22;6.97;;;3.80;;
52574;SDS011;38468;48.114;-1.684;2023-05-07T00:27:23;12.90;;;4.78;;
52574;SDS011;38468;48.114;-1.684;2023-05-07T00:29:24;12.23;;;3.42;;
52574;SDS011;38468;48.114;-1.684;2023-05-07T00:31:25;13.18;;;4.00;;
52574;SDS011;38468;48.114;-1.684;2023-05-07T00:33:25;13.88;;;4.78;;
52574;SDS011;38468;48.114;-1.684;2023-05-07T00:35:27;12.95;;;4.88;;
52574;SDS011;38468;48.114;-1.684;2023-05-07T00:37:29;12.95;;;4.20;;
52574;SDS011;38468;48.114;-1.684;2023-05-07T00:39:30;9.52;;;4.38;;
52574;SDS011;38468;48.114;-1.684;2023-05-07T00:41:30;8.20;;;3.70;;
52574;SDS011;38468;48.114;-1.684;2023-05-07T00:43:31;10.30;;;4.28;;
52574;SDS011;38468;48.114;-1.684;2023-05-07T00:45:32;11.73;;;3.85;;
52574;SDS011;38468;48.114;-1.684;2023-05-07T00:47:33;5.25;;;3.17;;
52574;SDS011;38468;48.114;-1.684;2023-05-07T00:49:38;7.85;;;3.10;;
52574;SDS011;38468;48.114;-1.684;2023-05-07T00:51:41;6.55;;;2.88;;
52574;SDS011;38468;48.114;-1.684;2023-05-07T00:53:42;9.75;;;3.80;;
52574;SDS011;38468;48.114;-1.684;2023-05-07T00:55:43;10.68;;;4.88;;
52574;SDS011;38468;48.114;-1.684;2023-05-07T00:57:43;7.47;;;3.58;;
52574;SDS011;38468;48.114;-1.684;2023-05-07T00:59:45;8.13;;;3.55;;
52574;SDS011;38468;48.114;-1.684;2023-05-07T01:01:45;11.75;;;4.22;;
52574;SDS011;38468;48.114;-1.684;2023-05-07T01:03:46;9.70;;;5.03;;
52574;SDS011;38468;48.114;-1.684;2023-05-07T01:05:47;11.55;;;4.70;;
52574;SDS011;38468;48.114;-1.684;2023-05-07T01:07:48;8.88;;;3.90;;
52574;SDS011;38468;48.114;-1.684;2023-05-07T01:09:51;9.18;;;4.40;;
52574;SDS011;38468;48.114;-1.684;2023-05-07T01:11:52;11.20;;;4.93;;
52574;SDS011;38468;48.114;-1.684;2023-05-07T01:13:54;9.70;;;5.18;;
52574;SDS011;38468;48.114;-1.684;2023-05-07T01:15:55;10.23;;;3.80;;
52574;SDS011;38468;48.114;-1.684;2023-05-07T01:17:56;9.38;;;3.50;;
52574;SDS011;38468;48.114;-1.684;2023-05-07T01:19:57;9.57;;;4.32;;
52574;SDS011;38468;48.114;-1.684;2023-05-07T01:22:01;8.23;;;4.57;;
52574;SDS011;38468;48.114;-1.684;2023-05-07T01:24:04;13.95;;;6.65;;
52574;SDS011;38468;48.114;-1.684;2023-05-07T01:26:05;7.95;;;4.38;;
52574;SDS011;38468;48.114;-1.684;2023-05-07T01:28:06;13.13;;;4.47;;
52574;SDS011;38468;48.114;-1.684;2023-05-07T01:30:07;9.63;;;4.90;;
52574;SDS011;38468;48.114;-1.684;2023-05-07T01:32:08;11.73;;;4.38;;
52574;SDS011;38468;48.114;-1.684;2023-05-07T01:34:09;9.50;;;3.97;;
52574;SDS011;38468;48.114;-1.684;2023-05-07T01:36:12;9.60;;;4.32;;
52574;SDS011;38468;48.114;-1.684;2023-05-07T01:38:14;11.85;;;4.00;;
52574;SDS011;38468;48.114;-1.684;2023-05-07T01:40:15;13.95;;;5.18;;
52574;SDS011;38468;48.114;-1.684;2023-05-07T01:42:16;8.87;;;3.77;;
52574;SDS011;38468;48.114;-1.684;2023-05-07T01:44:17;8.35;;;4.78;;
52574;SDS011;38468;48.114;-1.684;2023-05-07T01:46:19;10.23;;;4.38;;
52574;SDS011;38468;48.114;-1.684;2023-05-07T01:48:21;11.55;;;4.18;;
52574;SDS011;38468;48.114;-1.684;2023-05-07T01:50:22;9.63;;;4.50;;
52574;SDS011;38468;48.114;-1.684;2023-05-07T01:52:23;11.57;;;4.90;;
52574;SDS011;38468;48.114;-1.684;2023-05-07T01:54:25;8.77;;;4.63;;
52574;SDS011;38468;48.114;-1.684;2023-05-07T01:56:27;11.13;;;4.75;;
52574;SDS011;38468;48.114;-1.684;2023-05-07T01:58:28;13.13;;;5.85;;
52574;SDS011;38468;48.114;-1.684;2023-05-07T02:00:29;12.38;;;4.80;;
52574;SDS011;38468;48.114;-1.684;2023-05-07T02:02:29;10.15;;;5.15;;
52574;SDS011;38468;48.114;-1.684;2023-05-07T02:04:30;16.17;;;4.80;;
52574;SDS011;38468;48.114;-1.684;2023-05-07T02:06:31;10.10;;;4.18;;
52574;SDS011;38468;48.114;-1.684;2023-05-07T02:08:32;13.35;;;5.47;;
52574;SDS011;38468;48.114;-1.684;2023-05-07T02:10:32;11.30;;;4.78;;
52574;SDS011;38468;48.114;-1.684;2023-05-07T02:12:33;9.15;;;4.68;;
52574;SDS011;38468;48.114;-1.684;2023-05-07T02:14:33;16.05;;;5.70;;
52574;SDS011;38468;48.114;-1.684;2023-05-07T02:16:34;12.20;;;5.68;;
52574;SDS011;38468;48.114;-1.684;2023-05-07T02:18:35;14.73;;;5.10;;
52574;SDS011;38468;48.114;-1.684;2023-05-07T02:20:35;7.97;;;4.25;;
52574;SDS011;38468;48.114;-1.684;2023-05-07T02:22:36;14.50;;;5.30;;
52574;SDS011;38468;48.114;-1.684;2023-05-07T02:24:37;13.10;;;5.30;;
52574;SDS011;38468;48.114;-1.684;2023-05-07T02:26:37;21.08;;;5.40;;
52574;SDS011;38468;48.114;-1.684;2023-05-07T02:28:39;18.38;;;5.28;;
52574;SDS011;38468;48.114;-1.684;2023-05-07T02:30:39;14.55;;;5.18;;
52574;SDS011;38468;48.114;-1.684;2023-05-07T02:32:40;12.38;;;5.53;;
52574;SDS011;38468;48.114;-1.684;2023-05-07T02:34:41;13.82;;;5.10;;
52574;SDS011;38468;48.114;-1.684;2023-05-07T02:36:41;15.07;;;5.05;;
52574;SDS011;38468;48.114;-1.684;2023-05-07T02:38:42;13.52;;;5.20;;
52574;SDS011;38468;48.114;-1.684;2023-05-07T02:40:43;13.65;;;6.47;;
52574;SDS011;38468;48.114;-1.684;2023-05-07T02:42:44;9.45;;;4.90;;
52574;SDS011;38468;48.114;-1.684;2023-05-07T02:44:44;13.77;;;4.70;;
52574;SDS011;38468;48.114;-1.684;2023-05-07T02:46:45;12.05;;;5.30;;
52574;SDS011;38468;48.114;-1.684;2023-05-07T02:48:46;11.35;;;5.13;;
52574;SDS011;38468;48.114;-1.684;2023-05-07T02:50:46;13.57;;;5.28;;
52574;SDS011;38468;48.114;-1.684;2023-05-07T02:52:47;12.40;;;5.60;;
52574;SDS011;38468;48.114;-1.684;2023-05-07T02:54:48;8.80;;;4.68;;
52574;SDS011;38468;48.114;-1.684;2023-05-07T02:56:48;14.93;;;6.13;;
52574;SDS011;38468;48.114;-1.684;2023-05-07T02:58:49;11.07;;;6.18;;
52574;SDS011;38468;48.114;-1.684;2023-05-07T03:00:50;13.55;;;5.57;;
52574;SDS011;38468;48.114;-1.684;2023-05-07T03:02:51;13.25;;;4.97;;
52574;SDS011;38468;48.114;-1.684;2023-05-07T03:04:51;12.30;;;5.47;;
52574;SDS011;38468;48.114;-1.684;2023-05-07T03:06:52;12.18;;;4.65;;
52574;SDS011;38468;48.114;-1.684;2023-05-07T03:08:53;17.17;;;5.75;;
52574;SDS011;38468;48.114;-1.684;2023-05-07T03:10:53;13.30;;;4.97;;
52574;SDS011;38468;48.114;-1.684;2023-05-07T03:12:54;13.68;;;5.68;;
52574;SDS011;38468;48.114;-1.684;2023-05-07T03:14:55;14.32;;;5.47;;
52574;SDS011;38468;48.114;-1.684;2023-05-07T03:16:56;16.05;;;6.72;;
52574;SDS011;38468;48.114;-1.684;2023-05-07T03:18:56;9.55;;;5.03;;
52574;SDS011;38468;48.114;-1.684;2023-05-07T03:20:57;13.55;;;4.72;;
52574;SDS011;38468;48.114;-1.684;2023-05-07T03:22:58;12.95;;;5.25;;
52574;SDS011;38468;48.114;-1.684;2023-05-07T03:24:58;13.48;;;5.15;;
52574;SDS011;38468;48.114;-1.684;2023-05-07T03:26:59;7.78;;;4.75;;
52574;SDS011;38468;48.114;-1.684;2023-05-07T03:29:01;10.80;;;5.55;;
52574;SDS011;38468;48.114;-1.684;2023-05-07T03:31:01;15.48;;;6.50;;
52574;SDS011;38468;48.114;-1.684;2023-05-07T03:33:02;20.73;;;5.90;;
52574;SDS011;38468;48.114;-1.684;2023-05-07T03:35:03;10.55;;;4.70;;
52574;SDS011;38468;48.114;-1.684;2023-05-07T03:37:04;11.10;;;5.00;;
52574;SDS011;38468;48.114;-1.684;2023-05-07T03:39:04;16.55;;;5.97;;
52574;SDS011;38468;48.114;-1.684;2023-05-07T03:41:05;12.10;;;5.20;;
52574;SDS011;38468;48.114;-1.684;2023-05-07T03:43:06;13.77;;;5.70;;
52574;SDS011;38468;48.114;-1.684;2023-05-07T03:45:07;13.77;;;5.03;;
52574;SDS011;38468;48.114;-1.684;2023-05-07T03:47:08;11.32;;;5.53;;
52574;SDS011;38468;48.114;-1.684;2023-05-07T03:49:10;14.95;;;4.72;;
52574;SDS011;38468;48.114;-1.684;2023-05-07T03:51:10;13.60;;;4.70;;
52574;SDS011;38468;48.114;-1.684;2023-05-07T03:53:11;10.90;;;5.20;;
52574;SDS011;38468;48.114;-1.684;2023-05-07T03:55:12;13.13;;;5.22;;
52574;SDS011;38468;48.114;-1.684;2023-05-07T03:57:12;9.07;;;3.83;;
52574;SDS011;38468;48.114;-1.684;2023-05-07T03:59:13;9.80;;;5.45;;
52574;SDS011;38468;48.114;-1.684;2023-05-07T04:01:14;10.88;;;4.95;;
52574;SDS011;38468;48.114;-1.684;2023-05-07T04:03:15;9.15;;;4.72;;
52574;SDS011;38468;48.114;-1.684;2023-05-07T04:05:15;13.10;;;6.55;;
52574;SDS011;38468;48.114;-1.684;2023-05-07T04:07:16;11.45;;;5.13;;
52574;SDS011;38468;48.114;-1.684;2023-05-07T04:09:17;7.18;;;4.80;;
52574;SDS011;38468;48.114;-1.684;2023-05-07T04:11:18;8.35;;;5.03;;
52574;SDS011;38468;48.114;-1.684;2023-05-07T04:13:18;10.50;;;4.90;;
52574;SDS011;38468;48.114;-1.684;2023-05-07T04:15:19;10.98;;;4.75;;
52574;SDS011;38468;48.114;-1.684;2023-05-07T04:17:20;10.40;;;4.45;;
52574;SDS011;38468;48.114;-1.684;2023-05-07T04:19:20;13.18;;;5.15;;
52574;SDS011;38468;48.114;-1.684;2023-05-07T04:21:21;10.10;;;5.30;;
52574;SDS011;38468;48.114;-1.684;2023-05-07T04:23:22;9.85;;;4.97;;
52574;SDS011;38468;48.114;-1.684;2023-05-07T04:25:22;9.82;;;4.63;;
52574;SDS011;38468;48.114;-1.684;2023-05-07T04:27:26;11.63;;;4.82;;
52574;SDS011;38468;48.114;-1.684;2023-05-07T04:29:28;9.23;;;4.80;;
52574;SDS011;38468;48.114;-1.684;2023-05-07T04:31:28;8.52;;;4.15;;
52574;SDS011;38468;48.114;-1.684;2023-05-07T04:33:30;11.35;;;4.82;;
52574;SDS011;38468;48.114;-1.684;2023-05-07T04:35:31;9.30;;;4.88;;
52574;SDS011;38468;48.114;-1.684;2023-05-07T04:37:32;7.05;;;4.55;;
52574;SDS011;38468;48.114;-1.684;2023-05-07T04:39:33;5.95;;;4.40;;
52574;SDS011;38468;48.114;-1.684;2023-05-07T04:43:36;10.35;;;3.80;;
52574;SDS011;38468;48.114;-1.684;2023-05-07T04:45:36;6.10;;;4.35;;
52574;SDS011;38468;48.114;-1.684;2023-05-07T04:47:39;7.07;;;3.90;;
52574;SDS011;38468;48.114;-1.684;2023-05-07T04:49:40;9.82;;;3.53;;
52574;SDS011;38468;48.114;-1.684;2023-05-07T04:51:41;8.07;;;3.70;;
52574;SDS011;38468;48.114;-1.684;2023-05-07T04:53:42;8.98;;;4.28;;
52574;SDS011;38468;48.114;-1.684;2023-05-07T04:55:43;6.97;;;4.20;;
52574;SDS011;38468;48.114;-1.684;2023-05-07T04:57:47;10.15;;;4.13;;
52574;SDS011;38468;48.114;-1.684;2023-05-07T04:59:48;6.32;;;3.53;;
52574;SDS011;38468;48.114;-1.684;2023-05-07T05:01:49;7.25;;;4.63;;
52574;SDS011;38468;48.114;-1.684;2023-05-07T05:03:49;4.38;;;3.60;;
52574;SDS011;38468;48.114;-1.684;2023-05-07T05:05:50;9.60;;;4.38;;
52574;SDS011;38468;48.114;-1.684;2023-05-07T05:07:52;8.32;;;4.03;;
52574;SDS011;38468;48.114;-1.684;2023-05-07T05:09:52;5.28;;;3.50;;
52574;SDS011;38468;48.114;-1.684;2023-05-07T05:11:54;8.82;;;4.15;;
52574;SDS011;38468;48.114;-1.684;2023-05-07T05:13:55;12.50;;;4.50;;
52574;SDS011;38468;48.114;-1.684;2023-05-07T05:15:56;8.13;;;3.95;;
52574;SDS011;38468;48.114;-1.684;2023-05-07T05:17:57;7.55;;;3.90;;
52574;SDS011;38468;48.114;-1.684;2023-05-07T05:19:57;8.63;;;4.60;;
52574;SDS011;38468;48.114;-1.684;2023-05-07T05:21:58;11.05;;;4.57;;
52574;SDS011;38468;48.114;-1.684;2023-05-07T05:24:01;6.60;;;4.25;;
52574;SDS011;38468;48.114;-1.684;2023-05-07T05:26:01;8.70;;;4.13;;
52574;SDS011;38468;48.114;-1.684;2023-05-07T05:28:02;7.63;;;4.78;;
52574;SDS011;38468;48.114;-1.684;2023-05-07T05:30:03;8.73;;;4.38;;
52574;SDS011;38468;48.114;-1.684;2023-05-07T05:32:04;5.17;;;3.53;;
52574;SDS011;38468;48.114;-1.684;2023-05-07T05:34:05;8.20;;;5.10;;
52574;SDS011;38468;48.114;-1.684;2023-05-07T05:36:05;6.85;;;3.90;;
52574;SDS011;38468;48.114;-1.684;2023-05-07T05:38:09;7.90;;;3.40;;
52574;SDS011;38468;48.114;-1.684;2023-05-07T05:40:10;7.13;;;4.45;;
52574;SDS011;38468;48.114;-1.684;2023-05-07T05:42:11;10.63;;;4.85;;
52574;SDS011;38468;48.114;-1.684;2023-05-07T05:44:11;6.13;;;4.72;;
52574;SDS011;38468;48.114;-1.684;2023-05-07T05:46:12;5.65;;;4.10;;
52574;SDS011;38468;48.114;-1.684;2023-05-07T05:48:13;7.38;;;3.95;;
52574;SDS011;38468;48.114;-1.684;2023-05-07T05:50:13;7.30;;;3.97;;
52574;SDS011;38468;48.114;-1.684;2023-05-07T05:52:14;6.30;;;3.50;;
52574;SDS011;38468;48.114;-1.684;2023-05-07T05:56:17;4.90;;;3.25;;
52574;SDS011;38468;48.114;-1.684;2023-05-07T05:58:17;4.75;;;4.28;;
52574;SDS011;38468;48.114;-1.684;2023-05-07T06:00:18;5.20;;;3.88;;
52574;SDS011;38468;48.114;-1.684;2023-05-07T06:02:22;6.65;;;4.35;;
52574;SDS011;38468;48.114;-1.684;2023-05-07T06:04:22;6.70;;;4.45;;
52574;SDS011;38468;48.114;-1.684;2023-05-07T06:06:23;8.88;;;4.03;;
52574;SDS011;38468;48.114;-1.684;2023-05-07T06:08:24;5.15;;;4.65;;
52574;SDS011;38468;48.114;-1.684;2023-05-07T06:10:24;8.13;;;4.57;;
52574;SDS011;38468;48.114;-1.684;2023-05-07T06:12:27;10.43;;;4.60;;
52574;SDS011;38468;48.114;-1.684;2023-05-07T06:14:27;7.10;;;4.55;;
52574;SDS011;38468;48.114;-1.684;2023-05-07T06:16:28;6.05;;;4.18;;
52574;SDS011;38468;48.114;-1.684;2023-05-07T06:18:29;8.85;;;3.78;;
52574;SDS011;38468;48.114;-1.684;2023-05-07T06:20:29;7.55;;;4.32;;
52574;SDS011;38468;48.114;-1.684;2023-05-07T06:22:30;5.78;;;3.75;;
52574;SDS011;38468;48.114;-1.684;2023-05-07T06:24:31;6.45;;;3.65;;
52574;SDS011;38468;48.114;-1.684;2023-05-07T06:26:31;8.23;;;4.80;;
52574;SDS011;38468;48.114;-1.684;2023-05-07T06:28:32;6.90;;;4.53;;
52574;SDS011;38468;48.114;-1.684;2023-05-07T06:30:35;7.35;;;4.50;;
52574;SDS011;38468;48.114;-1.684;2023-05-07T06:32:36;4.72;;;4.20;;
52574;SDS011;38468;48.114;-1.684;2023-05-07T06:34:37;5.38;;;4.25;;
52574;SDS011;38468;48.114;-1.684;2023-05-07T06:36:39;5.85;;;4.05;;
52574;SDS011;38468;48.114;-1.684;2023-05-07T06:38:40;6.83;;;4.63;;
52574;SDS011;38468;48.114;-1.684;2023-05-07T06:40:41;6.25;;;5.07;;
52574;SDS011;38468;48.114;-1.684;2023-05-07T06:42:41;7.68;;;4.05;;
52574;SDS011;38468;48.114;-1.684;2023-05-07T06:44:42;5.25;;;4.13;;
52574;SDS011;38468;48.114;-1.684;2023-05-07T06:46:42;5.22;;;4.13;;
52574;SDS011;38468;48.114;-1.684;2023-05-07T06:48:43;9.40;;;3.88;;
52574;SDS011;38468;48.114;-1.684;2023-05-07T06:50:44;4.93;;;4.35;;
52574;SDS011;38468;48.114;-1.684;2023-05-07T06:52:45;5.05;;;4.18;;
52574;SDS011;38468;48.114;-1.684;2023-05-07T06:54:46;7.80;;;4.93;;
52574;SDS011;38468;48.114;-1.684;2023-05-07T06:56:46;5.07;;;4.55;;
52574;SDS011;38468;48.114;-1.684;2023-05-07T06:58:47;13.48;;;4.70;;
52574;SDS011;38468;48.114;-1.684;2023-05-07T07:00:47;7.22;;;4.47;;
52574;SDS011;38468;48.114;-1.684;2023-05-07T07:02:48;5.60;;;3.95;;
52574;SDS011;38468;48.114;-1.684;2023-05-07T07:04:49;5.07;;;4.20;;
52574;SDS011;38468;48.114;-1.684;2023-05-07T07:06:51;5.60;;;3.90;;
52574;SDS011;38468;48.114;-1.684;2023-05-07T07:08:52;6.63;;;3.58;;
52574;SDS011;38468;48.114;-1.684;2023-05-07T07:10:53;5.10;;;4.40;;
52574;SDS011;38468;48.114;-1.684;2023-05-07T07:12:54;5.88;;;3.88;;
52574;SDS011;38468;48.114;-1.684;2023-05-07T07:14:54;5.35;;;4.50;;
52574;SDS011;38468;48.114;-1.684;2023-05-07T07:16:55;8.23;;;4.53;;
52574;SDS011;38468;48.114;-1.684;2023-05-07T07:18:56;7.93;;;5.05;;
52574;SDS011;38468;48.114;-1.684;2023-05-07T07:20:56;7.68;;;5.22;;
52574;SDS011;38468;48.114;-1.684;2023-05-07T07:22:57;5.95;;;5.13;;
52574;SDS011;38468;48.114;-1.684;2023-05-07T07:24:58;6.03;;;4.95;;
52574;SDS011;38468;48.114;-1.684;2023-05-07T07:26:58;6.38;;;5.47;;
52574;SDS011;38468;48.114;-1.684;2023-05-07T07:28:59;5.72;;;4.85;;
52574;SDS011;38468;48.114;-1.684;2023-05-07T07:31:00;6.35;;;5.57;;
52574;SDS011;38468;48.114;-1.684;2023-05-07T07:33:00;7.00;;;5.55;;
52574;SDS011;38468;48.114;-1.684;2023-05-07T07:37:04;7.78;;;5.97;;
52574;SDS011;38468;48.114;-1.684;2023-05-07T07:39:06;7.57;;;6.38;;
52574;SDS011;38468;48.114;-1.684;2023-05-07T07:41:10;8.65;;;6.22;;
52574;SDS011;38468;48.114;-1.684;2023-05-07T07:43:10;8.85;;;6.95;;
52574;SDS011;38468;48.114;-1.684;2023-05-07T07:45:11;9.15;;;7.03;;
52574;SDS011;38468;48.114;-1.684;2023-05-07T07:47:12;8.68;;;7.22;;
52574;SDS011;38468;48.114;-1.684;2023-05-07T07:49:13;9.05;;;7.28;;
52574;SDS011;38468;48.114;-1.684;2023-05-07T07:51:14;8.70;;;6.20;;
52574;SDS011;38468;48.114;-1.684;2023-05-07T07:53:15;9.13;;;7.18;;
52574;SDS011;38468;48.114;-1.684;2023-05-07T07:55:15;10.48;;;8.27;;
52574;SDS011;38468;48.114;-1.684;2023-05-07T07:57:22;11.68;;;8.40;;
52574;SDS011;38468;48.114;-1.684;2023-05-07T07:59:22;9.10;;;8.15;;
52574;SDS011;38468;48.114;-1.684;2023-05-07T08:01:23;9.77;;;7.40;;
52574;SDS011;38468;48.114;-1.684;2023-05-07T08:03:23;8.05;;;6.85;;
52574;SDS011;38468;48.114;-1.684;2023-05-07T08:05:24;8.02;;;6.78;;
52574;SDS011;38468;48.114;-1.684;2023-05-07T08:07:25;10.02;;;7.13;;
52574;SDS011;38468;48.114;-1.684;2023-05-07T08:09:25;10.90;;;7.53;;
52574;SDS011;38468;48.114;-1.684;2023-05-07T08:11:26;7.57;;;6.78;;
52574;SDS011;38468;48.114;-1.684;2023-05-07T08:13:27;8.68;;;6.47;;
52574;SDS011;38468;48.114;-1.684;2023-05-07T08:15:28;9.70;;;7.40;;
52574;SDS011;38468;48.114;-1.684;2023-05-07T08:17:28;8.63;;;6.43;;
52574;SDS011;38468;48.114;-1.684;2023-05-07T08:19:29;11.73;;;7.18;;
52574;SDS011;38468;48.114;-1.684;2023-05-07T08:21:30;8.80;;;6.00;;
52574;SDS011;38468;48.114;-1.684;2023-05-07T08:23:30;6.57;;;5.47;;
52574;SDS011;38468;48.114;-1.684;2023-05-07T08:25:32;5.85;;;5.22;;
52574;SDS011;38468;48.114;-1.684;2023-05-07T08:27:34;7.00;;;6.10;;
52574;SDS011;38468;48.114;-1.684;2023-05-07T08:29:35;5.57;;;4.68;;
52574;SDS011;38468;48.114;-1.684;2023-05-07T08:31:35;4.85;;;4.35;;
52574;SDS011;38468;48.114;-1.684;2023-05-07T08:33:36;4.75;;;4.35;;
52574;SDS011;38468;48.114;-1.684;2023-05-07T08:35:38;4.93;;;4.47;;
52574;SDS011;38468;48.114;-1.684;2023-05-07T08:37:39;5.60;;;5.10;;
52574;SDS011;38468;48.114;-1.684;2023-05-07T08:39:39;7.30;;;5.30;;
52574;SDS011;38468;48.114;-1.684;2023-05-07T08:41:40;7.82;;;5.13;;
52574;SDS011;38468;48.114;-1.684;2023-05-07T08:43:44;6.80;;;5.30;;
52574;SDS011;38468;48.114;-1.684;2023-05-07T08:45:48;5.70;;;5.10;;
52574;SDS011;38468;48.114;-1.684;2023-05-07T08:47:55;7.50;;;4.57;;
52574;SDS011;38468;48.114;-1.684;2023-05-07T08:50:00;5.53;;;4.50;;
52574;SDS011;38468;48.114;-1.684;2023-05-07T08:52:01;4.93;;;4.43;;
52574;SDS011;38468;48.114;-1.684;2023-05-07T08:54:02;5.72;;;4.90;;
52574;SDS011;38468;48.114;-1.684;2023-05-07T08:58:06;4.95;;;4.50;;
52574;SDS011;38468;48.114;-1.684;2023-05-07T09:00:07;4.88;;;4.45;;
52574;SDS011;38468;48.114;-1.684;2023-05-07T09:02:09;4.97;;;4.33;;
52574;SDS011;38468;48.114;-1.684;2023-05-07T09:04:11;4.90;;;4.25;;
52574;SDS011;38468;48.114;-1.684;2023-05-07T09:06:12;5.03;;;4.60;;
52574;SDS011;38468;48.114;-1.684;2023-05-07T09:08:14;4.53;;;4.13;;
52574;SDS011;38468;48.114;-1.684;2023-05-07T09:12:17;4.57;;;4.18;;
52574;SDS011;38468;48.114;-1.684;2023-05-07T09:16:22;3.97;;;3.58;;
52574;SDS011;38468;48.114;-1.684;2023-05-07T09:18:24;6.78;;;4.53;;
52574;SDS011;38468;48.114;-1.684;2023-05-07T09:20:25;4.35;;;3.67;;
52574;SDS011;38468;48.114;-1.684;2023-05-07T09:22:26;4.30;;;3.90;;
52574;SDS011;38468;48.114;-1.684;2023-05-07T09:24:26;4.55;;;4.18;;
52574;SDS011;38468;48.114;-1.684;2023-05-07T09:26:28;4.30;;;3.90;;
52574;SDS011;38468;48.114;-1.684;2023-05-07T09:28:29;4.93;;;4.53;;
52574;SDS011;38468;48.114;-1.684;2023-05-07T09:30:30;4.22;;;3.88;;
52574;SDS011;38468;48.114;-1.684;2023-05-07T09:32:34;4.07;;;3.42;;
52574;SDS011;38468;48.114;-1.684;2023-05-07T09:34:37;3.78;;;3.40;;
52574;SDS011;38468;48.114;-1.684;2023-05-07T09:36:38;5.32;;;3.95;;
52574;SDS011;38468;48.114;-1.684;2023-05-07T09:38:39;4.38;;;3.97;;
52574;SDS011;38468;48.114;-1.684;2023-05-07T09:40:40;4.17;;;3.77;;
52574;SDS011;38468;48.114;-1.684;2023-05-07T09:42:41;4.22;;;3.83;;
52574;SDS011;38468;48.114;-1.684;2023-05-07T09:44:43;4.65;;;3.10;;
52574;SDS011;38468;48.114;-1.684;2023-05-07T09:46:44;5.63;;;3.05;;
52574;SDS011;38468;48.114;-1.684;2023-05-07T09:48:50;2.80;;;2.60;;
52574;SDS011;38468;48.114;-1.684;2023-05-07T09:50:56;3.03;;;2.83;;
52574;SDS011;38468;48.114;-1.684;2023-05-07T09:53:01;3.53;;;3.22;;
52574;SDS011;38468;48.114;-1.684;2023-05-07T09:55:04;3.63;;;2.67;;
52574;SDS011;38468;48.114;-1.684;2023-05-07T09:59:07;4.82;;;3.35;;
52574;SDS011;38468;48.114;-1.684;2023-05-07T10:01:10;4.97;;;2.40;;
52574;SDS011;38468;48.114;-1.684;2023-05-07T10:03:12;2.92;;;2.47;;
52574;SDS011;38468;48.114;-1.684;2023-05-07T10:07:15;3.10;;;2.38;;
52574;SDS011;38468;48.114;-1.684;2023-05-07T10:09:17;3.30;;;3.10;;
52574;SDS011;38468;48.114;-1.684;2023-05-07T10:11:19;3.92;;;2.75;;
52574;SDS011;38468;48.114;-1.684;2023-05-07T10:13:21;3.47;;;3.05;;
52574;SDS011;38468;48.114;-1.684;2023-05-07T10:15:22;2.78;;;2.13;;
52574;SDS011;38468;48.114;-1.684;2023-05-07T10:17:24;3.00;;;2.50;;
52574;SDS011;38468;48.114;-1.684;2023-05-07T10:19:25;2.90;;;2.60;;
52574;SDS011;38468;48.114;-1.684;2023-05-07T10:21:27;3.22;;;2.92;;
52574;SDS011;38468;48.114;-1.684;2023-05-07T10:23:29;3.67;;;3.22;;
52574;SDS011;38468;48.114;-1.684;2023-05-07T10:25:32;4.18;;;3.38;;
52574;SDS011;38468;48.114;-1.684;2023-05-07T10:27:33;2.75;;;2.55;;
52574;SDS011;38468;48.114;-1.684;2023-05-07T10:34:10;2.40;;;2.30;;
52574;SDS011;38468;48.114;-1.684;2023-05-07T10:36:13;2.83;;;2.03;;
52574;SDS011;38468;48.114;-1.684;2023-05-07T10:38:14;2.03;;;1.92;;
52574;SDS011;38468;48.114;-1.684;2023-05-07T10:40:15;3.35;;;3.05;;
52574;SDS011;38468;48.114;-1.684;2023-05-07T10:42:17;1.70;;;1.60;;
52574;SDS011;38468;48.114;-1.684;2023-05-07T10:44:25;2.85;;;2.00;;
52574;SDS011;38468;48.114;-1.684;2023-05-07T10:46:29;2.05;;;1.85;;
52574;SDS011;38468;48.114;-1.684;2023-05-07T10:48:32;2.47;;;2.17;;
52574;SDS011;38468;48.114;-1.684;2023-05-07T10:50:33;2.60;;;2.40;;
52574;SDS011;38468;48.114;-1.684;2023-05-07T10:52:35;4.93;;;3.72;;
52574;SDS011;38468;48.114;-1.684;2023-05-07T10:54:36;4.03;;;3.70;;
52574;SDS011;38468;48.114;-1.684;2023-05-07T10:56:37;3.78;;;3.28;;
52574;SDS011;38468;48.114;-1.684;2023-05-07T10:58:43;4.70;;;4.22;;
52574;SDS011;38468;48.114;-1.684;2023-05-07T11:00:43;4.72;;;4.15;;
52574;SDS011;38468;48.114;-1.684;2023-05-07T11:05:21;5.95;;;4.75;;
52574;SDS011;38468;48.114;-1.684;2023-05-07T11:11:52;4.55;;;3.50;;
52574;SDS011;38468;48.114;-1.684;2023-05-07T11:13:52;5.25;;;4.00;;
52574;SDS011;38468;48.114;-1.684;2023-05-07T11:15:53;4.65;;;3.38;;
52574;SDS011;38468;48.114;-1.684;2023-05-07T11:17:55;3.60;;;3.10;;
52574;SDS011;38468;48.114;-1.684;2023-05-07T11:19:59;4.15;;;3.75;;
52574;SDS011;38468;48.114;-1.684;2023-05-07T11:22:01;4.75;;;4.32;;
52574;SDS011;38468;48.114;-1.684;2023-05-07T11:24:05;6.63;;;4.45;;
52574;SDS011;38468;48.114;-1.684;2023-05-07T11:26:07;7.40;;;4.50;;
52574;SDS011;38468;48.114;-1.684;2023-05-07T11:28:09;5.22;;;4.25;;
52574;SDS011;38468;48.114;-1.684;2023-05-07T11:30:16;4.68;;;4.20;;
52574;SDS011;38468;48.114;-1.684;2023-05-07T11:32:24;5.18;;;3.88;;
52574;SDS011;38468;48.114;-1.684;2023-05-07T11:34:29;3.85;;;3.50;;
52574;SDS011;38468;48.114;-1.684;2023-05-07T11:36:30;5.22;;;3.80;;
52574;SDS011;38468;48.114;-1.684;2023-05-07T11:38:36;4.97;;;3.83;;
52574;SDS011;38468;48.114;-1.684;2023-05-07T11:40:53;3.80;;;3.13;;
52574;SDS011;38468;48.114;-1.684;2023-05-07T11:42:57;4.57;;;3.40;;
52574;SDS011;38468;48.114;-1.684;2023-05-07T11:44:58;4.55;;;3.55;;
52574;SDS011;38468;48.114;-1.684;2023-05-07T11:46:59;4.27;;;3.57;;
52574;SDS011;38468;48.114;-1.684;2023-05-07T11:49:02;4.30;;;3.90;;
52574;SDS011;38468;48.114;-1.684;2023-05-07T11:51:03;6.35;;;3.00;;
52574;SDS011;38468;48.114;-1.684;2023-05-07T11:53:08;3.50;;;3.20;;
52574;SDS011;38468;48.114;-1.684;2023-05-07T11:55:09;4.03;;;3.08;;
52574;SDS011;38468;48.114;-1.684;2023-05-07T11:57:14;4.72;;;3.67;;
52574;SDS011;38468;48.114;-1.684;2023-05-07T11:59:18;4.60;;;3.63;;
52574;SDS011;38468;48.114;-1.684;2023-05-07T12:01:19;6.53;;;4.63;;
52574;SDS011;38468;48.114;-1.684;2023-05-07T12:03:20;5.40;;;4.05;;
52574;SDS011;38468;48.114;-1.684;2023-05-07T12:05:21;7.07;;;5.07;;
52574;SDS011;38468;48.114;-1.684;2023-05-07T12:07:21;6.63;;;4.28;;
52574;SDS011;38468;48.114;-1.684;2023-05-07T12:09:24;10.05;;;4.65;;
52574;SDS011;38468;48.114;-1.684;2023-05-07T12:11:25;9.90;;;4.50;;
52574;SDS011;38468;48.114;-1.684;2023-05-07T12:13:26;4.90;;;4.05;;
52574;SDS011;38468;48.114;-1.684;2023-05-07T12:15:27;8.48;;;4.82;;
52574;SDS011;38468;48.114;-1.684;2023-05-07T12:17:28;10.90;;;3.83;;
52574;SDS011;38468;48.114;-1.684;2023-05-07T12:19:29;7.10;;;4.00;;
52574;SDS011;38468;48.114;-1.684;2023-05-07T12:21:30;4.40;;;4.00;;
52574;SDS011;38468;48.114;-1.684;2023-05-07T12:23:31;8.13;;;4.97;;
52574;SDS011;38468;48.114;-1.684;2023-05-07T12:25:36;8.40;;;5.05;;